Time;durP1;ratioP1;P1;durP2;ratioP2;P2;SDS_P1;SDS_P2;PMS_P1;PMS_P2;Temp;Humidity;BMP_temperature;BMP_pressure;BME280_temperature;BME280_humidity;BME280_pressure;Samples;Min_cycle;Max_cycle;Signal;HPM_P1;HPM_P2
2023/01/29 00:01:52;;;;;;;8.73;6.82;;;;;;;;;;5001647;28;20032;-75
2023/01/29 00:04:19;;;;;;;8.48;5.97;;;;;;;;;;5001165;28;20070;-75
2023/01/29 00:06:46;;;;;;;7.20;6.47;;;;;;;;;;5001598;28;20102;-75
2023/01/29 00:09:13;;;;;;;11.02;8.40;;;;;;;;;;5001348;28;20040;-75
2023/01/29 00:11:40;;;;;;;8.27;6.20;;;;;;;;;;4986007;28;20030;-75
2023/01/29 00:14:07;;;;;;;7.82;6.85;;;;;;;;;;5017223;28;20105;-74
2023/01/29 00:16:33;;;;;;;8.00;6.90;;;;;;;;;;5017394;28;20032;-74
2023/01/29 00:19:01;;;;;;;8.23;6.20;;;;;;;;;;5013619;28;20045;-75
2023/01/29 00:21:29;;;;;;;9.57;7.25;;;;;;;;;;4969058;28;20056;-76
2023/01/29 00:23:57;;;;;;;8.85;7.07;;;;;;;;;;4985137;28;20034;-74
2023/01/29 00:26:24;;;;;;;12.43;7.35;;;;;;;;;;5001303;28;20034;-75
2023/01/29 00:28:51;;;;;;;9.02;6.97;;;;;;;;;;5000475;28;20065;-75
2023/01/29 00:31:20;;;;;;;9.75;7.20;;;;;;;;;;5015811;28;20054;-75
2023/01/29 00:33:48;;;;;;;9.95;7.30;;;;;;;;;;5016188;28;20049;-76
2023/01/29 00:36:16;;;;;;;9.68;7.30;;;;;;;;;;4999492;28;20093;-75
2023/01/29 00:38:43;;;;;;;7.47;6.65;;;;;;;;;;4999107;28;20046;-75
2023/01/29 00:46:43;;;;;;;7.78;6.57;;;;;;;;;;4998680;28;20034;-75
2023/01/29 00:49:11;;;;;;;8.10;6.80;;;;;;;;;;5001884;28;20040;-76
2023/01/29 00:51:38;;;;;;;7.25;6.38;;;;;;;;;;5016371;28;20040;-75
2023/01/29 00:54:05;;;;;;;6.80;6.05;;;;;;;;;;5000232;28;20109;-75
2023/01/29 00:56:35;;;;;;;7.85;7.10;;;;;;;;;;4983793;28;20056;-74
2023/01/29 00:59:03;;;;;;;24.08;7.63;;;;;;;;;;4999069;28;20055;-76
2023/01/29 01:04:15;;;;;;;7.43;6.60;;;;;;;;;;5004450;28;20065;-75
2023/01/29 01:06:42;;;;;;;7.70;6.55;;;;;;;;;;4983986;28;20077;-75
2023/01/29 01:11:55;;;;;;;7.10;6.10;;;;;;;;;;5004557;28;20093;-76
2023/01/29 01:14:22;;;;;;;9.80;7.80;;;;;;;;;;5015351;28;20054;-75
2023/01/29 01:16:48;;;;;;;7.20;6.40;;;;;;;;;;4999232;28;20057;-75
2023/01/29 01:19:16;;;;;;;9.95;7.15;;;;;;;;;;4999464;28;20060;-76
2023/01/29 01:21:45;;;;;;;8.77;6.90;;;;;;;;;;4999326;28;20050;-75
2023/01/29 01:24:12;;;;;;;8.52;6.82;;;;;;;;;;4999336;28;20049;-75
2023/01/29 01:26:39;;;;;;;7.28;6.28;;;;;;;;;;4999289;28;20041;-75
2023/01/29 01:29:06;;;;;;;9.48;6.55;;;;;;;;;;4999540;28;20046;-74
2023/01/29 01:31:33;;;;;;;8.82;6.38;;;;;;;;;;4999674;28;20054;-75
2023/01/29 01:34:00;;;;;;;7.78;6.20;;;;;;;;;;4984156;28;20058;-76
2023/01/29 01:36:26;;;;;;;8.90;6.18;;;;;;;;;;5002945;28;20052;-75
2023/01/29 01:38:53;;;;;;;7.85;6.32;;;;;;;;;;5018907;28;20121;-75
2023/01/29 01:41:21;;;;;;;7.88;6.47;;;;;;;;;;5018843;28;20044;-76
2023/01/29 01:43:56;;;;;;;8.52;6.18;;;;;;;;;;5018936;28;20050;-76
2023/01/29 01:46:28;;;;;;;6.82;6.13;;;;;;;;;;5015655;28;20038;-76
2023/01/29 01:49:02;;;;;;;8.30;6.55;;;;;;;;;;4998573;28;20094;-75
2023/01/29 01:51:30;;;;;;;8.52;6.25;;;;;;;;;;4998998;28;20144;-75
2023/01/29 01:54:02;;;;;;;6.90;6.20;;;;;;;;;;4974541;28;20046;-74
2023/01/29 01:56:37;;;;;;;10.47;6.70;;;;;;;;;;5013803;28;20060;-76
2023/01/29 01:59:17;;;;;;;9.07;6.80;;;;;;;;;;5013222;28;20274;-76
2023/01/29 02:01:48;;;;;;;6.45;5.82;;;;;;;;;;4996767;28;20050;-75
2023/01/29 02:09:53;;;;;;;7.93;5.97;;;;;;;;;;5018275;28;20046;-76
2023/01/29 02:12:20;;;;;;;8.88;6.97;;;;;;;;;;4999096;28;20049;-75
2023/01/29 02:14:46;;;;;;;8.63;6.35;;;;;;;;;;4998345;28;20041;-75
2023/01/29 02:17:15;;;;;;;8.68;6.50;;;;;;;;;;4998511;28;20081;-74
2023/01/29 02:19:45;;;;;;;7.95;5.60;;;;;;;;;;4982529;28;20058;-74
2023/01/29 02:22:38;;;;;;;7.82;6.00;;;;;;;;;;5014271;28;20053;-74
2023/01/29 02:25:39;;;;;;;7.53;6.35;;;;;;;;;;4998408;28;20058;-76
2023/01/29 02:28:21;;;;;;;7.13;5.65;;;;;;;;;;5012749;28;20046;-76
2023/01/29 02:31:22;;;;;;;8.73;6.28;;;;;;;;;;4997255;28;20053;-76
2023/01/29 02:34:05;;;;;;;9.38;6.20;;;;;;;;;;5011966;28;20049;-76
2023/01/29 02:36:37;;;;;;;7.10;6.32;;;;;;;;;;4996198;28;20050;-76
2023/01/29 02:39:13;;;;;;;8.32;6.30;;;;;;;;;;4995690;28;20114;-77
2023/01/29 02:42:04;;;;;;;7.55;5.93;;;;;;;;;;5006687;28;20114;-76
2023/01/29 02:44:38;;;;;;;9.85;6.75;;;;;;;;;;4989563;28;20091;-76
2023/01/29 02:47:15;;;;;;;7.72;5.35;;;;;;;;;;4972659;28;20046;-77
2023/01/29 02:50:12;;;;;;;7.10;6.10;;;;;;;;;;4985040;28;20541;-76
2023/01/29 02:53:02;;;;;;;7.40;5.65;;;;;;;;;;4983974;28;20046;-77
2023/01/29 02:55:40;;;;;;;7.63;5.55;;;;;;;;;;5012274;28;20053;-77
2023/01/29 02:58:30;;;;;;;6.72;6.05;;;;;;;;;;5011084;28;20069;-77
2023/01/29 03:01:01;;;;;;;8.70;5.88;;;;;;;;;;4990983;28;20065;-77
2023/01/29 03:03:49;;;;;;;6.78;5.82;;;;;;;;;;4984602;28;20786;-76
2023/01/29 03:06:31;;;;;;;7.13;5.78;;;;;;;;;;4982206;28;20538;-77
2023/01/29 03:09:00;;;;;;;9.45;6.20;;;;;;;;;;4978959;28;20512;-76
2023/01/29 03:11:38;;;;;;;7.55;5.97;;;;;;;;;;4994879;28;20423;-77
2023/01/29 03:14:12;;;;;;;6.63;5.75;;;;;;;;;;4976586;28;20046;-76
2023/01/29 03:16:43;;;;;;;6.38;5.60;;;;;;;;;;4960516;28;20065;-76
2023/01/29 03:19:47;;;;;;;6.70;5.82;;;;;;;;;;4959192;28;20058;-76
2023/01/29 03:22:15;;;;;;;9.13;6.57;;;;;;;;;;4976144;28;20050;-76
2023/01/29 03:33:43;;;;;;;8.63;5.75;;;;;;;;;;4979646;28;20054;-78
2023/01/29 03:36:16;;;;;;;7.80;6.03;;;;;;;;;;4961052;28;20046;-77
2023/01/29 03:38:43;;;;;;;;;;;;;;;;;;4945918;28;20047;-77
2023/01/29 03:41:30;;;;;;;6.60;5.60;;;;;;;;;;4961155;28;19944;-77
2023/01/29 03:44:13;;;;;;;8.55;6.55;;;;;;;;;;4959361;28;20422;-75
2023/01/29 03:46:47;;;;;;;6.82;5.93;;;;;;;;;;4979341;28;20053;-79
2023/01/29 03:49:37;;;;;;;8.00;6.15;;;;;;;;;;4964672;28;20056;-78
2023/01/29 03:52:30;;;;;;;8.68;6.50;;;;;;;;;;4982641;28;20073;-78
2023/01/29 03:55:05;;;;;;;7.28;6.03;;;;;;;;;;4982330;28;20042;-78
2023/01/29 03:57:45;;;;;;;9.63;6.22;;;;;;;;;;4983044;28;20153;-79
2023/01/29 04:00:17;;;;;;;6.53;5.80;;;;;;;;;;4980796;28;20042;-77
2023/01/29 04:02:44;;;;;;;;;;;;;;;;;;4996091;28;20112;-77
2023/01/29 04:05:15;;;;;;;8.02;6.57;;;;;;;;;;4991449;28;19922;-78
2023/01/29 04:07:42;;;;;;;9.30;6.80;;;;;;;;;;4995670;28;20054;-78
2023/01/29 04:10:18;;;;;;;7.43;6.63;;;;;;;;;;4983053;28;20426;-77
2023/01/29 04:12:47;;;;;;;7.65;6.45;;;;;;;;;;4980167;28;20041;-78
2023/01/29 04:15:14;;;;;;;8.13;6.80;;;;;;;;;;4977834;28;20061;-77
2023/01/29 04:17:50;;;;;;;7.75;6.47;;;;;;;;;;4981073;28;20041;-77
2023/01/29 04:20:18;;;;;;;7.18;6.43;;;;;;;;;;4981385;28;20620;-78
2023/01/29 04:22:47;;;;;;;8.50;6.78;;;;;;;;;;4970082;28;20062;-78
2023/01/29 04:25:16;;;;;;;7.45;6.15;;;;;;;;;;4962665;28;20080;-78
2023/01/29 04:28:07;;;;;;;8.13;6.05;;;;;;;;;;4945691;28;20073;-76
2023/01/29 04:31:07;;;;;;;7.68;6.18;;;;;;;;;;4958870;28;20082;-78
2023/01/29 04:33:48;;;;;;;8.68;6.25;;;;;;;;;;4962578;28;20502;-78
2023/01/29 04:36:40;;;;;;;8.02;5.88;;;;;;;;;;4979029;28;20050;-77
2023/01/29 04:39:24;;;;;;;9.70;6.55;;;;;;;;;;5014012;28;20054;-78
2023/01/29 04:41:58;;;;;;;9.95;6.97;;;;;;;;;;4980450;28;20061;-77
2023/01/29 04:44:38;;;;;;;7.13;6.43;;;;;;;;;;4978424;28;20106;-76
2023/01/29 04:47:27;;;;;;;8.38;6.82;;;;;;;;;;4979033;28;20046;-76
2023/01/29 04:50:13;;;;;;;8.60;7.20;;;;;;;;;;4980089;28;20053;-77
2023/01/29 04:52:49;;;;;;;10.38;7.35;;;;;;;;;;4994446;28;20506;-77
2023/01/29 04:55:37;;;;;;;8.50;7.07;;;;;;;;;;4978016;28;20050;-77
2023/01/29 04:58:09;;;;;;;9.55;6.32;;;;;;;;;;4970565;28;20062;-77
2023/01/29 05:00:53;;;;;;;9.32;6.93;;;;;;;;;;4974887;28;20403;-78
2023/01/29 05:03:22;;;;;;;9.82;6.68;;;;;;;;;;4989268;28;20061;-76
2023/01/29 05:05:49;;;;;;;9.13;6.85;;;;;;;;;;4973717;28;20054;-77
2023/01/29 05:08:19;;;;;;;7.60;6.50;;;;;;;;;;4972725;28;20050;-78
2023/01/29 05:10:47;;;;;;;9.35;7.22;;;;;;;;;;4979069;28;20052;-76
2023/01/29 05:13:14;;;;;;;9.85;6.68;;;;;;;;;;4979181;28;20050;-75
2023/01/29 05:15:44;;;;;;;9.65;6.93;;;;;;;;;;4979564;28;20046;-74
2023/01/29 05:18:11;;;;;;;8.27;6.90;;;;;;;;;;4979033;28;20117;-74
2023/01/29 05:20:39;;;;;;;7.45;6.20;;;;;;;;;;4979152;28;20061;-74
2023/01/29 05:23:16;;;;;;;8.07;6.85;;;;;;;;;;4994995;28;20053;-75
2023/01/29 05:25:44;;;;;;;9.80;6.68;;;;;;;;;;4991193;28;20058;-72
2023/01/29 05:28:15;;;;;;;8.43;6.70;;;;;;;;;;5009992;28;20052;-74
2023/01/29 05:30:46;;;;;;;7.82;6.85;;;;;;;;;;4980607;28;20244;-74
2023/01/29 05:33:18;;;;;;;8.77;7.15;;;;;;;;;;4995542;28;20153;-74
2023/01/29 05:35:45;;;;;;;11.30;6.78;;;;;;;;;;4979540;28;20056;-74
2023/01/29 05:38:12;;;;;;;8.23;6.80;;;;;;;;;;4963035;28;20053;-74
2023/01/29 05:40:38;;;;;;;8.15;6.55;;;;;;;;;;4995552;28;20395;-74
2023/01/29 05:43:14;;;;;;;8.88;7.00;;;;;;;;;;4995387;28;20053;-73
2023/01/29 05:45:40;;;;;;;8.15;6.53;;;;;;;;;;4975765;28;20057;-74
2023/01/29 05:48:07;;;;;;;8.63;7.03;;;;;;;;;;4978891;28;20053;-74
2023/01/29 05:50:34;;;;;;;10.38;7.50;;;;;;;;;;4975747;28;20054;-74
2023/01/29 05:53:01;;;;;;;8.32;6.35;;;;;;;;;;4963190;28;20046;-74
2023/01/29 05:55:28;;;;;;;9.13;6.82;;;;;;;;;;4978803;28;20065;-73
2023/01/29 05:57:55;;;;;;;8.80;6.57;;;;;;;;;;4994658;28;20049;-74
2023/01/29 06:00:22;;;;;;;11.00;7.88;;;;;;;;;;4995320;28;20072;-74
2023/01/29 06:02:48;;;;;;;10.38;6.95;;;;;;;;;;4995199;28;20049;-74
2023/01/29 06:05:15;;;;;;;8.93;6.80;;;;;;;;;;5011086;28;20108;-74
2023/01/29 06:07:44;;;;;;;9.68;6.70;;;;;;;;;;4994814;28;20046;-74
2023/01/29 06:10:12;;;;;;;11.18;6.75;;;;;;;;;;4991184;28;20104;-74
2023/01/29 06:12:41;;;;;;;8.02;6.55;;;;;;;;;;4971544;28;20060;-74
2023/01/29 06:15:08;;;;;;;9.55;7.13;;;;;;;;;;4978511;28;20057;-75
2023/01/29 06:17:35;;;;;;;8.68;6.95;;;;;;;;;;4978549;28;20053;-74
2023/01/29 06:20:02;;;;;;;11.07;7.22;;;;;;;;;;4994978;28;20689;-74
2023/01/29 06:22:29;;;;;;;11.10;7.40;;;;;;;;;;4990393;28;20081;-75
2023/01/29 06:24:56;;;;;;;10.40;7.05;;;;;;;;;;4976411;28;20088;-74
2023/01/29 06:27:23;;;;;;;8.18;6.53;;;;;;;;;;4994136;28;20426;-75
2023/01/29 06:29:50;;;;;;;10.27;7.00;;;;;;;;;;4977952;28;20061;-75
2023/01/29 06:32:16;;;;;;;10.25;7.05;;;;;;;;;;4978617;28;20076;-76
2023/01/29 06:34:43;;;;;;;9.68;6.57;;;;;;;;;;4978397;28;20502;-76
2023/01/29 06:37:10;;;;;;;10.63;6.97;;;;;;;;;;4978582;28;20514;-74
2023/01/29 06:39:37;;;;;;;9.00;6.72;;;;;;;;;;4978137;28;20054;-74
2023/01/29 06:42:04;;;;;;;9.75;7.38;;;;;;;;;;4978327;28;20053;-76
2023/01/29 06:44:30;;;;;;;8.95;7.28;;;;;;;;;;4978585;28;20426;-75
2023/01/29 06:46:57;;;;;;;10.07;7.10;;;;;;;;;;4975626;28;20046;-76
2023/01/29 06:49:24;;;;;;;8.35;6.70;;;;;;;;;;4979155;28;20462;-76
2023/01/29 06:51:51;;;;;;;10.10;7.78;;;;;;;;;;4998899;28;20056;-76
2023/01/29 06:54:18;;;;;;;10.25;7.05;;;;;;;;;;5020736;28;20062;-76
2023/01/29 06:56:45;;;;;;;11.00;7.60;;;;;;;;;;4997601;28;20038;-73
2023/01/29 06:59:12;;;;;;;12.38;7.85;;;;;;;;;;5028178;28;20064;-74
2023/01/29 07:01:43;;;;;;;10.20;7.03;;;;;;;;;;5018423;28;20113;-74
2023/01/29 07:04:10;;;;;;;10.18;7.25;;;;;;;;;;5019895;28;20038;-74
2023/01/29 07:06:36;;;;;;;10.23;6.55;;;;;;;;;;5018903;28;20026;-75
2023/01/29 07:09:03;;;;;;;8.88;7.07;;;;;;;;;;5018168;28;20061;-74
2023/01/29 07:11:31;;;;;;;8.90;7.10;;;;;;;;;;5003487;28;20110;-74
2023/01/29 07:13:58;;;;;;;8.55;6.65;;;;;;;;;;5001964;28;20060;-72
2023/01/29 07:16:25;;;;;;;9.55;7.32;;;;;;;;;;5002181;28;20049;-74
2023/01/29 07:18:52;;;;;;;9.88;7.80;;;;;;;;;;5001896;28;20049;-75
2023/01/29 07:21:18;;;;;;;9.05;7.10;;;;;;;;;;5017310;28;20034;-73
2023/01/29 07:23:45;;;;;;;12.13;6.82;;;;;;;;;;5001558;28;20050;-74
2023/01/29 07:26:12;;;;;;;11.02;8.05;;;;;;;;;;4998255;28;20030;-76
2023/01/29 07:28:39;;;;;;;10.52;7.72;;;;;;;;;;4986464;28;20030;-75
2023/01/29 07:31:07;;;;;;;10.23;6.78;;;;;;;;;;4999827;28;20049;-73
2023/01/29 07:33:33;;;;;;;9.98;7.10;;;;;;;;;;4998286;28;20073;-75
2023/01/29 07:36:00;;;;;;;10.13;8.07;;;;;;;;;;4998978;28;20046;-74
2023/01/29 07:38:27;;;;;;;8.77;7.30;;;;;;;;;;4997893;28;20052;-73
2023/01/29 07:40:54;;;;;;;9.85;8.02;;;;;;;;;;4988049;28;20433;-74
2023/01/29 07:43:23;;;;;;;11.18;8.02;;;;;;;;;;5009469;28;20053;-75
2023/01/29 07:45:50;;;;;;;9.63;7.20;;;;;;;;;;4985971;28;20058;-73
2023/01/29 07:48:17;;;;;;;11.88;8.13;;;;;;;;;;5015699;28;20050;-74
2023/01/29 07:50:44;;;;;;;8.75;6.88;;;;;;;;;;5031589;28;20046;-74
2023/01/29 07:53:14;;;;;;;11.38;8.10;;;;;;;;;;4999950;28;20054;-74
2023/01/29 07:55:44;;;;;;;7.70;6.90;;;;;;;;;;5033061;28;20097;-73
2023/01/29 07:58:11;;;;;;;8.93;7.43;;;;;;;;;;5001860;28;20053;-75
2023/01/29 08:00:38;;;;;;;9.68;6.97;;;;;;;;;;4986576;28;20038;-72
2023/01/29 08:03:06;;;;;;;7.97;6.90;;;;;;;;;;4966115;28;20034;-76
2023/01/29 08:05:33;;;;;;;9.52;7.53;;;;;;;;;;4967036;28;20110;-75
2023/01/29 08:08:00;;;;;;;9.80;7.57;;;;;;;;;;4965884;28;20053;-74
2023/01/29 08:10:36;;;;;;;9.05;7.03;;;;;;;;;;4982899;28;20065;-74
2023/01/29 08:13:03;;;;;;;10.23;7.75;;;;;;;;;;4968921;28;20054;-75
2023/01/29 08:15:30;;;;;;;11.10;7.20;;;;;;;;;;4960991;28;20026;-74
2023/01/29 08:17:57;;;;;;;8.13;6.88;;;;;;;;;;4980932;28;20411;-74
2023/01/29 08:20:24;;;;;;;10.65;7.05;;;;;;;;;;5004662;28;20086;-74
2023/01/29 08:23:01;;;;;;;9.38;7.28;;;;;;;;;;5012502;28;20046;-74
2023/01/29 08:25:28;;;;;;;9.05;7.00;;;;;;;;;;5012412;28;20058;-75
2023/01/29 08:27:56;;;;;;;10.52;7.97;;;;;;;;;;4999675;28;20038;-74
2023/01/29 08:30:25;;;;;;;10.85;6.18;;;;;;;;;;5009177;28;20085;-75
2023/01/29 08:32:52;;;;;;;10.82;8.02;;;;;;;;;;4987896;28;20062;-75
2023/01/29 08:35:18;;;;;;;10.05;7.22;;;;;;;;;;4987744;28;20050;-75
2023/01/29 08:37:53;;;;;;;8.27;7.32;;;;;;;;;;4987737;28;20046;-75
2023/01/29 08:40:21;;;;;;;10.57;7.88;;;;;;;;;;4974922;28;20133;-75
2023/01/29 08:42:47;;;;;;;9.60;6.97;;;;;;;;;;4974877;28;20057;-74
2023/01/29 08:45:14;;;;;;;8.88;7.15;;;;;;;;;;4960847;28;20060;-75
2023/01/29 08:47:48;;;;;;;8.98;6.97;;;;;;;;;;4962865;28;20045;-77
2023/01/29 08:50:16;;;;;;;11.60;7.55;;;;;;;;;;4984041;28;20049;-76
2023/01/29 08:52:44;;;;;;;11.90;7.88;;;;;;;;;;4979441;28;20127;-76
2023/01/29 08:55:11;;;;;;;10.68;7.80;;;;;;;;;;4965296;28;20050;-76
2023/01/29 08:57:38;;;;;;;8.38;7.32;;;;;;;;;;4943640;28;20053;-76
2023/01/29 09:00:06;;;;;;;10.95;7.80;;;;;;;;;;4963278;28;20053;-75
2023/01/29 09:02:32;;;;;;;15.60;8.57;;;;;;;;;;4980719;28;20057;-75
2023/01/29 09:04:59;;;;;;;11.93;8.00;;;;;;;;;;4979741;28;20111;-75
2023/01/29 09:07:28;;;;;;;10.48;7.18;;;;;;;;;;4983172;28;20054;-74
2023/01/29 09:09:55;;;;;;;8.30;7.32;;;;;;;;;;4989131;28;20418;-75
2023/01/29 09:12:21;;;;;;;10.70;7.25;;;;;;;;;;4987489;28;20365;-75
2023/01/29 09:14:48;;;;;;;8.48;6.75;;;;;;;;;;4988641;28;20444;-74
2023/01/29 09:17:15;;;;;;;8.13;6.82;;;;;;;;;;4985886;28;20065;-74
2023/01/29 09:19:41;;;;;;;9.73;7.07;;;;;;;;;;4987669;28;20061;-75
2023/01/29 09:22:08;;;;;;;10.63;7.22;;;;;;;;;;5005458;28;20521;-78
2023/01/29 09:24:37;;;;;;;13.13;8.55;;;;;;;;;;4998447;28;20140;-76
2023/01/29 09:27:04;;;;;;;10.32;7.65;;;;;;;;;;4998279;28;20057;-75
2023/01/29 09:29:31;;;;;;;9.77;7.40;;;;;;;;;;4998017;28;20053;-75
2023/01/29 09:32:02;;;;;;;10.20;6.82;;;;;;;;;;4978850;28;20050;-76
2023/01/29 09:34:29;;;;;;;9.75;7.35;;;;;;;;;;4962350;28;20061;-76
2023/01/29 09:36:56;;;;;;;8.93;7.57;;;;;;;;;;4978086;28;20494;-76
2023/01/29 09:39:22;;;;;;;9.75;7.85;;;;;;;;;;4977613;28;20495;-74
2023/01/29 09:42:16;;;;;;;10.18;6.93;;;;;;;;;;4977009;28;20494;-75
2023/01/29 09:45:03;;;;;;;9.70;7.30;;;;;;;;;;4992966;28;20674;-75
2023/01/29 09:47:32;;;;;;;14.50;8.30;;;;;;;;;;4993463;28;20065;-75
2023/01/29 09:50:05;;;;;;;8.88;7.15;;;;;;;;;;4993855;28;20065;-75
2023/01/29 09:52:38;;;;;;;9.52;6.63;;;;;;;;;;4993639;28;20066;-75
2023/01/29 09:55:12;;;;;;;9.55;7.88;;;;;;;;;;4977710;28;20050;-74
2023/01/29 09:57:38;;;;;;;8.15;6.90;;;;;;;;;;4977905;28;20482;-75
2023/01/29 10:00:06;;;;;;;11.25;7.07;;;;;;;;;;4995285;28;20498;-74
2023/01/29 10:02:55;;;;;;;7.90;7.00;;;;;;;;;;4978537;28;20065;-74
2023/01/29 10:05:49;;;;;;;9.10;7.45;;;;;;;;;;4996057;28;20053;-75
2023/01/29 10:08:40;;;;;;;8.00;6.82;;;;;;;;;;4994173;28;20045;-76
2023/01/29 10:11:13;;;;;;;10.00;7.85;;;;;;;;;;4978776;28;20050;-76
2023/01/29 10:13:47;;;;;;;8.70;6.90;;;;;;;;;;4978739;28;20050;-76
2023/01/29 10:17:03;;;;;;;9.80;7.68;;;;;;;;;;4975481;28;20058;-76
2023/01/29 10:19:51;;;;;;;9.50;6.68;;;;;;;;;;4908731;28;20491;-76
2023/01/29 10:22:30;;;;;;;10.63;7.53;;;;;;;;;;4981087;28;20049;-76
2023/01/29 10:24:59;;;;;;;9.88;6.82;;;;;;;;;;4994300;28;20060;-76
2023/01/29 10:27:37;;;;;;;9.30;7.55;;;;;;;;;;4994384;28;20441;-76
2023/01/29 10:30:18;;;;;;;8.80;7.20;;;;;;;;;;4994496;28;20145;-75
2023/01/29 10:32:45;;;;;;;11.00;7.22;;;;;;;;;;4971434;28;20065;-76
2023/01/29 10:35:14;;;;;;;10.50;7.93;;;;;;;;;;4994033;28;20053;-76
2023/01/29 10:37:42;;;;;;;9.15;7.65;;;;;;;;;;4978382;28;20108;-76
2023/01/29 10:40:30;;;;;;;9.73;7.25;;;;;;;;;;4978061;28;20414;-75
2023/01/29 10:43:32;;;;;;;9.45;7.32;;;;;;;;;;4978546;28;20050;-76
2023/01/29 10:46:15;;;;;;;9.05;7.28;;;;;;;;;;4966215;28;20052;-75
2023/01/29 10:49:00;;;;;;;8.48;6.85;;;;;;;;;;4994140;28;20522;-76
2023/01/29 10:51:47;;;;;;;10.35;7.88;;;;;;;;;;4994223;28;20402;-75
2023/01/29 10:54:14;;;;;;;10.48;7.45;;;;;;;;;;4993515;28;20521;-76
2023/01/29 10:56:47;;;;;;;10.02;7.60;;;;;;;;;;4994266;28;20083;-76
2023/01/29 10:59:20;;;;;;;9.95;7.85;;;;;;;;;;4977873;28;20057;-76
2023/01/29 11:01:47;;;;;;;11.63;7.82;;;;;;;;;;4994042;28;20704;-76
2023/01/29 11:04:13;;;;;;;9.68;7.80;;;;;;;;;;4993424;28;20339;-76
2023/01/29 11:06:40;;;;;;;12.02;8.10;;;;;;;;;;4977693;28;20418;-76
2023/01/29 11:09:12;;;;;;;11.20;8.52;;;;;;;;;;4976633;28;20804;-75
2023/01/29 11:11:49;;;;;;;9.38;7.53;;;;;;;;;;4993774;28;20060;-72
2023/01/29 11:14:20;;;;;;;13.15;8.05;;;;;;;;;;4965059;28;20081;-73
2023/01/29 11:16:47;;;;;;;9.40;7.85;;;;;;;;;;4977671;28;20062;-73
2023/01/29 11:19:15;;;;;;;9.63;7.55;;;;;;;;;;4990492;28;20061;-73
2023/01/29 11:21:57;;;;;;;8.55;7.65;;;;;;;;;;4996843;28;20054;-76
2023/01/29 11:24:24;;;;;;;9.95;7.72;;;;;;;;;;4977929;28;20057;-75
2023/01/29 11:26:56;;;;;;;9.27;7.65;;;;;;;;;;4975868;28;20046;-74
2023/01/29 11:29:28;;;;;;;8.68;7.75;;;;;;;;;;4976476;28;20092;-75
2023/01/29 11:31:59;;;;;;;9.18;8.05;;;;;;;;;;4992717;28;20072;-75
2023/01/29 11:34:35;;;;;;;9.23;7.53;;;;;;;;;;4976265;28;20502;-76
2023/01/29 11:37:03;;;;;;;8.65;7.75;;;;;;;;;;4992376;28;20050;-76
2023/01/29 11:39:31;;;;;;;10.02;7.80;;;;;;;;;;4975932;28;20061;-76
2023/01/29 11:42:02;;;;;;;10.18;8.55;;;;;;;;;;4975613;28;20058;-76
2023/01/29 11:44:31;;;;;;;10.75;9.05;;;;;;;;;;4962729;28;20046;-76
2023/01/29 11:47:10;;;;;;;11.05;8.30;;;;;;;;;;4995348;28;20125;-76
2023/01/29 11:49:38;;;;;;;9.27;8.10;;;;;;;;;;4999677;28;20084;-76
2023/01/29 11:52:07;;;;;;;11.70;9.10;;;;;;;;;;4975665;28;20057;-76
2023/01/29 11:54:42;;;;;;;10.00;7.85;;;;;;;;;;4975998;28;20136;-76
2023/01/29 11:57:42;;;;;;;10.60;7.93;;;;;;;;;;4976031;28;20156;-76
2023/01/29 12:00:15;;;;;;;11.85;8.50;;;;;;;;;;4953064;28;20068;-76
2023/01/29 12:02:43;;;;;;;;;;;;;;;;;;4993597;28;20505;-75
2023/01/29 12:05:17;;;;;;;11.85;9.07;;;;;;;;;;4989203;28;19928;-76
2023/01/29 12:07:49;;;;;;;10.10;7.95;;;;;;;;;;4963528;28;20142;-76
2023/01/29 12:10:34;;;;;;;11.15;8.80;;;;;;;;;;4966364;28;20486;-76
2023/01/29 12:13:08;;;;;;;10.13;8.10;;;;;;;;;;5002173;28;20052;-76
2023/01/29 12:15:36;;;;;;;9.73;8.70;;;;;;;;;;5000444;28;20054;-76
2023/01/29 12:18:12;;;;;;;11.10;8.73;;;;;;;;;;4975865;28;20418;-76
2023/01/29 12:20:45;;;;;;;13.60;9.32;;;;;;;;;;4989992;28;20714;-75
2023/01/29 12:23:40;;;;;;;10.43;8.70;;;;;;;;;;4940467;28;20671;-75
2023/01/29 12:26:22;;;;;;;13.18;9.02;;;;;;;;;;4972158;28;20054;-75
2023/01/29 12:29:20;;;;;;;11.30;8.80;;;;;;;;;;4982154;28;20117;-75
2023/01/29 12:32:11;;;;;;;11.38;9.13;;;;;;;;;;4991239;28;20081;-75
2023/01/29 12:34:45;;;;;;;9.70;8.43;;;;;;;;;;4991535;28;20146;-76
2023/01/29 12:37:22;;;;;;;11.75;9.02;;;;;;;;;;4975589;28;20145;-75
2023/01/29 12:39:50;;;;;;;10.75;8.93;;;;;;;;;;4991375;28;20046;-75
2023/01/29 12:42:21;;;;;;;11.88;9.20;;;;;;;;;;4975786;28;20140;-76
2023/01/29 12:44:57;;;;;;;11.93;9.10;;;;;;;;;;4967512;28;20057;-77
2023/01/29 12:47:36;;;;;;;12.23;8.60;;;;;;;;;;4976572;28;20061;-76
2023/01/29 12:50:23;;;;;;;11.32;8.90;;;;;;;;;;4982832;28;20053;-75
2023/01/29 12:52:59;;;;;;;9.30;8.35;;;;;;;;;;4991095;28;20485;-75
2023/01/29 12:55:33;;;;;;;11.15;9.50;;;;;;;;;;4971583;28;20053;-74
2023/01/29 12:58:08;;;;;;;10.20;8.75;;;;;;;;;;4973965;28;20461;-75
2023/01/29 13:00:38;;;;;;;9.15;8.18;;;;;;;;;;4966253;28;20054;-74
2023/01/29 13:03:25;;;;;;;12.00;8.55;;;;;;;;;;4973153;28;20514;-75
2023/01/29 13:06:09;;;;;;;11.70;8.88;;;;;;;;;;4975609;28;20058;-75
2023/01/29 13:08:42;;;;;;;10.70;8.45;;;;;;;;;;4972041;28;20053;-75
2023/01/29 13:11:17;;;;;;;10.57;8.70;;;;;;;;;;4959703;28;20078;-75
2023/01/29 13:13:51;;;;;;;11.77;9.05;;;;;;;;;;4947376;28;20636;-75
2023/01/29 13:16:22;;;;;;;10.32;8.52;;;;;;;;;;4957446;28;20046;-75
2023/01/29 13:18:54;;;;;;;11.63;9.55;;;;;;;;;;4959973;28;20108;-75
2023/01/29 13:21:45;;;;;;;11.95;9.43;;;;;;;;;;4960333;28;20054;-75
2023/01/29 13:24:19;;;;;;;13.50;9.15;;;;;;;;;;4978039;28;20123;-75
2023/01/29 13:26:46;;;;;;;15.65;8.82;;;;;;;;;;4968004;28;20442;-75
2023/01/29 13:29:26;;;;;;;11.95;9.10;;;;;;;;;;4967727;28;20047;-76
2023/01/29 13:32:06;;;;;;;12.80;9.07;;;;;;;;;;4976606;28;20045;-75
2023/01/29 13:34:35;;;;;;;13.93;9.27;;;;;;;;;;4964943;28;20054;-76
2023/01/29 13:37:10;;;;;;;14.95;9.27;;;;;;;;;;4969620;28;20058;-75
2023/01/29 13:39:46;;;;;;;11.82;8.70;;;;;;;;;;4976473;28;20058;-75
2023/01/29 13:42:22;;;;;;;11.32;8.90;;;;;;;;;;4953682;28;20421;-76
2023/01/29 13:44:51;;;;;;;12.35;9.20;;;;;;;;;;4962287;28;20129;-76
2023/01/29 13:47:26;;;;;;;9.93;8.23;;;;;;;;;;4953337;28;20054;-76
2023/01/29 13:49:56;;;;;;;10.27;8.45;;;;;;;;;;4972091;28;20045;-75
2023/01/29 13:52:35;;;;;;;10.70;8.95;;;;;;;;;;4958872;28;20058;-75
2023/01/29 13:55:04;;;;;;;11.30;9.07;;;;;;;;;;4971324;28;20050;-75
2023/01/29 13:57:43;;;;;;;10.25;8.25;;;;;;;;;;4977437;28;20144;-75
2023/01/29 14:00:33;;;;;;;10.35;8.20;;;;;;;;;;4983194;28;20101;-74
2023/01/29 14:02:59;;;;;;;11.55;9.35;;;;;;;;;;4984804;28;20054;-75
2023/01/29 14:05:29;;;;;;;11.90;8.75;;;;;;;;;;4986411;28;20041;-75
2023/01/29 14:07:58;;;;;;;12.70;9.63;;;;;;;;;;4993046;28;20046;-75
2023/01/29 14:10:26;;;;;;;13.05;9.68;;;;;;;;;;4972184;28;20498;-75
2023/01/29 14:13:00;;;;;;;10.35;8.68;;;;;;;;;;4971799;28;20422;-75
2023/01/29 14:15:28;;;;;;;13.02;9.25;;;;;;;;;;4987459;28;20049;-76
2023/01/29 14:18:04;;;;;;;11.32;9.43;;;;;;;;;;4961720;28;20065;-76
2023/01/29 14:21:04;;;;;;;13.77;9.23;;;;;;;;;;4988608;28;20518;-76
2023/01/29 14:23:40;;;;;;;14.02;9.90;;;;;;;;;;4960643;28;20045;-75
2023/01/29 14:26:20;;;;;;;12.48;9.88;;;;;;;;;;4993181;28;20046;-75
2023/01/29 14:29:10;;;;;;;14.30;9.85;;;;;;;;;;4985553;28;20104;-74
2023/01/29 14:31:51;;;;;;;14.38;10.40;;;;;;;;;;4993351;28;20050;-75
2023/01/29 14:34:28;;;;;;;14.65;10.38;;;;;;;;;;4972397;28;20050;-75
2023/01/29 14:37:17;;;;;;;12.85;10.15;;;;;;;;;;4970694;28;20065;-75
2023/01/29 14:39:44;;;;;;;12.82;9.77;;;;;;;;;;4969388;28;20042;-76
2023/01/29 14:42:57;;;;;;;13.77;10.68;;;;;;;;;;4990850;28;20530;-76
2023/01/29 14:45:29;;;;;;;12.75;10.63;;;;;;;;;;4967020;28;20042;-75
2023/01/29 14:47:56;;;;;;;12.90;10.10;;;;;;;;;;4991401;28;20061;-75
2023/01/29 14:50:32;;;;;;;12.65;10.10;;;;;;;;;;4988440;28;20168;-76
2023/01/29 14:53:17;;;;;;;12.48;9.63;;;;;;;;;;4991026;28;20042;-75
2023/01/29 14:56:08;;;;;;;12.40;9.85;;;;;;;;;;4983527;28;20057;-75
2023/01/29 14:58:37;;;;;;;14.70;10.50;;;;;;;;;;4975270;28;20054;-76
2023/01/29 15:01:11;;;;;;;15.20;10.18;;;;;;;;;;4956216;28;20309;-76
2023/01/29 15:04:04;;;;;;;14.93;11.00;;;;;;;;;;4953801;28;20053;-76
2023/01/29 15:06:46;;;;;;;13.77;10.45;;;;;;;;;;4958740;28;20137;-76
2023/01/29 15:09:17;;;;;;;13.07;9.90;;;;;;;;;;4985172;28;20046;-75
2023/01/29 15:11:59;;;;;;;13.77;10.68;;;;;;;;;;4975840;28;20065;-74
2023/01/29 15:14:46;;;;;;;14.27;10.27;;;;;;;;;;5013251;28;20071;-74
2023/01/29 15:17:37;;;;;;;15.20;11.65;;;;;;;;;;4979512;28;20046;-75
2023/01/29 15:20:43;;;;;;;20.52;11.27;;;;;;;;;;4998029;28;20038;-75
2023/01/29 15:23:25;;;;;;;15.70;11.77;;;;;;;;;;4999680;28;20080;-74
2023/01/29 15:26:00;;;;;;;14.45;10.88;;;;;;;;;;5014353;28;20085;-74
2023/01/29 15:28:32;;;;;;;13.43;10.02;;;;;;;;;;4992605;28;20237;-75
2023/01/29 15:31:00;;;;;;;12.27;10.02;;;;;;;;;;4977586;28;20042;-75
2023/01/29 15:33:27;;;;;;;13.65;9.93;;;;;;;;;;4994863;28;20053;-74
2023/01/29 15:35:59;;;;;;;15.25;10.40;;;;;;;;;;4989123;28;20057;-73
2023/01/29 15:38:34;;;;;;;12.98;10.32;;;;;;;;;;4976189;28;20177;-76
2023/01/29 15:41:12;;;;;;;14.45;11.40;;;;;;;;;;4966416;28;20049;-74